Time;durP1;ratioP1;P1;durP2;ratioP2;P2;SDS_P1;SDS_P2;PMS_P1;PMS_P2;Temp;Humidity;BMP_temperature;BMP_pressure;BME280_temperature;BME280_humidity;BME280_pressure;Samples;Min_cycle;Max_cycle;Signal;HPM_P1;HPM_P2
2023/01/27 00:02:17;;;;;;;;;;;-2.20;99.90;;;;;;5055974;28;20400;-78
2023/01/27 00:04:42;;;;;;;;;;;-2.20;99.90;;;;;;5056184;28;19915;-78
2023/01/27 00:07:08;;;;;;;;;;;-2.20;99.90;;;;;;5055628;28;19913;-78
2023/01/27 00:09:34;;;;;;;;;;;-2.20;99.90;;;;;;5055008;28;19908;-77
2023/01/27 00:14:43;;;;;;;;;;;-2.20;99.90;;;;;;5055875;28;19920;-77
2023/01/27 00:17:09;;;;;;;;;;;-2.20;99.90;;;;;;5053912;28;19917;-77
2023/01/27 00:19:34;;;;;;;;;;;-2.30;99.90;;;;;;5055217;28;19917;-77
2023/01/27 00:24:44;;;;;;;;;;;-2.30;99.90;;;;;;5055266;28;19958;-77
2023/01/27 00:27:11;;;;;;;;;;;-2.30;99.90;;;;;;5053917;28;19920;-77
2023/01/27 00:29:40;;;;;;;;;;;-2.30;99.90;;;;;;5053879;28;19916;-77
2023/01/27 00:34:49;;;;;;;;;;;-2.40;99.90;;;;;;5055388;28;19951;-77
2023/01/27 00:37:15;;;;;;;;;;;-2.40;99.90;;;;;;5054826;28;19971;-77
2023/01/27 00:39:40;;;;;;;;;;;-2.40;99.90;;;;;;5054330;28;19913;-77
2023/01/27 00:42:06;;;;;;;;;;;-2.40;99.90;;;;;;5055161;28;20404;-78
2023/01/27 00:44:31;;;;;;;;;;;-2.40;99.90;;;;;;5054723;28;19913;-77
2023/01/27 00:46:57;;;;;;;;;;;-2.40;99.90;;;;;;5053582;28;19966;-77
2023/01/27 00:49:23;;;;;;;;;;;-2.40;99.90;;;;;;5054613;28;19912;-77
2023/01/27 00:51:48;;;;;;;;;;;-2.30;99.90;;;;;;5054840;28;19909;-77
2023/01/27 00:54:14;;;;;;;;;;;-2.20;99.90;;;;;;5055099;28;19978;-78
2023/01/27 00:56:40;;;;;;;;;;;-2.20;99.90;;;;;;5054855;28;20001;-77
2023/01/27 00:59:05;;;;;;;;;;;-2.20;99.90;;;;;;5055100;28;19920;-77
2023/01/27 01:01:32;;;;;;;;;;;-2.20;99.90;;;;;;5056353;28;20483;-78
2023/01/27 01:03:58;;;;;;;;;;;-2.10;99.90;;;;;;5057026;28;19909;-78
2023/01/27 01:06:24;;;;;;;;;;;-2.10;99.90;;;;;;5057021;28;19970;-78
2023/01/27 01:08:52;;;;;;;;;;;-2.10;99.90;;;;;;5054821;28;19909;-78
2023/01/27 01:11:19;;;;;;;;;;;-2.10;99.90;;;;;;5056663;28;19913;-77
2023/01/27 01:13:45;;;;;;;;;;;-2.10;99.90;;;;;;5057610;28;20365;-78
2023/01/27 01:16:12;;;;;;;;;;;-2.10;99.90;;;;;;5056096;28;19923;-77
2023/01/27 01:18:37;;;;;;;;;;;-2.10;99.90;;;;;;5055772;28;19916;-78
2023/01/27 01:21:05;;;;;;;;;;;-2.10;99.90;;;;;;5055624;28;19909;-77
2023/01/27 01:23:31;;;;;;;;;;;-2.10;99.90;;;;;;5056379;28;19913;-78
2023/01/27 01:25:57;;;;;;;;;;;-2.10;99.90;;;;;;5055668;28;20238;-77
2023/01/27 01:28:23;;;;;;;;;;;-2.10;99.90;;;;;;5054163;28;19920;-77
2023/01/27 01:30:48;;;;;;;;;;;-2.20;99.90;;;;;;5054205;28;19962;-77
2023/01/27 01:33:14;;;;;;;;;;;-2.20;99.90;;;;;;5054536;28;19913;-77
2023/01/27 01:35:40;;;;;;;;;;;-2.20;99.90;;;;;;5053835;28;19924;-77
2023/01/27 01:38:05;;;;;;;;;;;-2.20;99.90;;;;;;5053119;28;19909;-77
2023/01/27 01:40:31;;;;;;;;;;;-2.20;99.90;;;;;;5052709;28;19912;-77
2023/01/27 01:42:58;;;;;;;;;;;-2.20;99.90;;;;;;5053954;28;19908;-77
2023/01/27 01:45:30;;;;;;;;;;;-2.20;99.90;;;;;;5053977;28;19909;-77
2023/01/27 01:47:57;;;;;;;;;;;-2.20;99.90;;;;;;5053999;28;20426;-77
2023/01/27 01:50:22;;;;;;;;;;;-2.20;99.90;;;;;;5052122;28;19948;-77
2023/01/27 01:52:48;;;;;;;;;;;-2.20;99.90;;;;;;5052613;28;20280;-77
2023/01/27 01:55:14;;;;;;;;;;;-2.20;99.90;;;;;;5053370;28;19932;-77
2023/01/27 01:57:41;;;;;;;;;;;-2.20;99.90;;;;;;5053687;28;20266;-77
2023/01/27 02:00:08;;;;;;;;;;;-2.20;99.90;;;;;;5052546;28;19912;-77
2023/01/27 02:02:34;;;;;;;;;;;-2.20;99.90;;;;;;5054033;28;19929;-77
2023/01/27 02:05:10;;;;;;;;;;;-2.20;99.90;;;;;;5053682;28;20007;-77
2023/01/27 02:07:44;;;;;;;;;;;-2.20;99.90;;;;;;5053354;28;19909;-77
2023/01/27 02:10:11;;;;;;;;;;;-2.20;99.90;;;;;;5053314;28;19909;-77
2023/01/27 02:12:37;;;;;;;;;;;-2.20;99.90;;;;;;5053520;28;19958;-77
2023/01/27 02:15:04;;;;;;;;;;;-2.30;99.90;;;;;;5053430;28;20011;-77
2023/01/27 02:17:29;;;;;;;;;;;-2.40;99.90;;;;;;5053409;28;20122;-77
2023/01/27 02:20:04;;;;;;;;;;;-2.50;99.90;;;;;;5053358;28;19909;-77
2023/01/27 02:22:36;;;;;;;;;;;-2.60;99.90;;;;;;5053518;28;19953;-77
2023/01/27 02:25:06;;;;;;;;;;;-2.60;99.90;;;;;;5053238;28;19916;-77
2023/01/27 02:27:32;;;;;;;;;;;-2.70;99.90;;;;;;5053346;28;19970;-77
2023/01/27 02:29:57;;;;;;;;;;;-2.60;99.90;;;;;;5053211;28;20369;-77
2023/01/27 02:32:24;;;;;;;;;;;-2.60;99.90;;;;;;5053595;28;19913;-77
2023/01/27 02:34:50;;;;;;;;;;;-2.60;99.90;;;;;;5052011;28;19908;-77
2023/01/27 02:37:18;;;;;;;;;;;-2.60;99.90;;;;;;5051700;28;20347;-77
2023/01/27 02:39:45;;;;;;;;;;;-2.60;99.90;;;;;;5052922;28;20353;-77
2023/01/27 02:42:12;;;;;;;;;;;-2.60;99.90;;;;;;5053188;28;19913;-77
2023/01/27 02:44:38;;;;;;;;;;;-2.60;99.90;;;;;;5053325;28;19908;-77
2023/01/27 02:47:04;;;;;;;;;;;-2.60;99.90;;;;;;5053151;28;20289;-77
2023/01/27 02:49:29;;;;;;;;;;;-2.60;99.90;;;;;;5052168;28;19909;-77
2023/01/27 02:51:55;;;;;;;;;;;-2.50;99.90;;;;;;5052018;28;20424;-77
2023/01/27 02:54:21;;;;;;;;;;;-2.50;99.90;;;;;;5052949;28;19924;-76
2023/01/27 02:56:46;;;;;;;;;;;-2.50;99.90;;;;;;5053146;28;19924;-77
2023/01/27 02:59:12;;;;;;;;;;;-2.50;99.90;;;;;;5051792;28;19919;-77
2023/01/27 03:01:37;;;;;;;;;;;-2.50;99.90;;;;;;5055151;28;20365;-77
2023/01/27 03:04:04;;;;;;;;;;;-2.60;99.90;;;;;;5056755;28;20392;-77
2023/01/27 03:06:30;;;;;;;;;;;-2.60;99.90;;;;;;5056380;28;19913;-77
2023/01/27 03:08:55;;;;;;;;;;;-2.70;99.90;;;;;;5055600;28;19963;-77
2023/01/27 03:14:06;;;;;;;;;;;-2.70;99.90;;;;;;5056638;28;20368;-77
2023/01/27 03:19:16;;;;;;;;;;;-2.80;99.90;;;;;;5056847;28;20296;-77
2023/01/27 03:21:44;;;;;;;;;;;-2.90;99.90;;;;;;5056251;28;19913;-77
2023/01/27 03:24:09;;;;;;;;;;;-2.90;99.90;;;;;;5056064;28;19912;-77
2023/01/27 03:26:37;;;;;;;;;;;-2.90;99.90;;;;;;5056232;28;20023;-77
2023/01/27 03:31:47;;;;;;;;;;;-2.90;99.90;;;;;;5056180;28;20008;-77
2023/01/27 03:34:13;;;;;;;;;;;-2.90;99.90;;;;;;5037922;28;20023;-77
2023/01/27 03:47:35;;;;;;;;;;;-2.90;99.90;;;;;;5056196;28;19936;-77
2023/01/27 03:50:00;;;;;;;;;;;-2.90;99.90;;;;;;5055714;28;20380;-77
2023/01/27 03:52:26;;;;;;;;;;;-2.90;99.90;;;;;;5055550;28;20277;-77
2023/01/27 03:54:52;;;;;;;;;;;-2.90;99.90;;;;;;5055462;28;19916;-77
2023/01/27 03:57:17;;;;;;;;;;;-2.80;99.90;;;;;;5054464;28;19917;-77
2023/01/27 03:59:43;;;;;;;;;;;-2.80;99.90;;;;;;5055669;28;20293;-77
2023/01/27 04:07:36;;;;;;;;;;;-2.80;99.90;;;;;;5055789;28;20272;-77
2023/01/27 04:10:03;;;;;;;;;;;-2.80;99.90;;;;;;5055207;28;19996;-77
2023/01/27 04:12:28;;;;;;;;;;;-2.80;99.90;;;;;;5054480;28;19999;-77
2023/01/27 04:14:54;;;;;;;;;;;-2.90;99.90;;;;;;5055387;28;19951;-77
2023/01/27 04:17:19;;;;;;;;;;;-2.90;99.90;;;;;;5037390;28;19925;-77
2023/01/27 04:19:45;;;;;;;;;;;-2.90;99.90;;;;;;5055298;28;19908;-77
2023/01/27 04:22:12;;;;;;;;;;;-2.90;99.90;;;;;;5055211;28;20270;-77
2023/01/27 04:24:37;;;;;;;;;;;-2.80;99.90;;;;;;5054987;28;19947;-77
2023/01/27 04:27:04;;;;;;;;;;;-2.80;99.90;;;;;;5055204;28;19908;-77
2023/01/27 04:29:31;;;;;;;;;;;-2.80;99.90;;;;;;5054965;28;20285;-77
2023/01/27 04:31:57;;;;;;;;;;;-2.70;99.90;;;;;;5055026;28;19956;-77
2023/01/27 04:34:23;;;;;;;;;;;-2.70;99.90;;;;;;5054623;28;19951;-77
2023/01/27 04:36:48;;;;;;;;;;;-2.60;99.90;;;;;;5054788;28;19913;-77
2023/01/27 04:39:14;;;;;;;;;;;-2.60;99.90;;;;;;5053282;28;19913;-77
2023/01/27 04:41:40;;;;;;;;;;;-2.60;99.90;;;;;;5054828;28;20007;-77
2023/01/27 04:44:06;;;;;;;;;;;-2.60;99.90;;;;;;5054570;28;20011;-77
2023/01/27 04:46:32;;;;;;;;;;;-2.60;99.90;;;;;;5054657;28;19916;-77
2023/01/27 04:48:58;;;;;;;;;;;-2.60;99.90;;;;;;5054758;28;20288;-77
2023/01/27 04:51:23;;;;;;;;;;;-2.60;99.90;;;;;;5054689;28;19919;-77
2023/01/27 04:53:49;;;;;;;;;;;-2.60;99.90;;;;;;5054395;28;19912;-77
2023/01/27 04:56:24;;;;;;;;;;;-2.60;99.90;;;;;;5054767;28;20030;-77
2023/01/27 04:58:50;;;;;;;;;;;-2.70;99.90;;;;;;5054624;28;20345;-77
2023/01/27 05:01:16;;;;;;;;;;;-2.70;99.90;;;;;;5053166;28;19920;-77
2023/01/27 05:03:41;;;;;;;;;;;-2.80;99.90;;;;;;5054099;28;19909;-77
2023/01/27 05:06:08;;;;;;;;;;;-2.90;99.90;;;;;;5054332;28;20325;-77
2023/01/27 05:08:34;;;;;;;;;;;-2.90;99.90;;;;;;5053993;28;20284;-77
2023/01/27 05:10:59;;;;;;;;;;;-2.90;99.90;;;;;;5054654;28;19920;-77
2023/01/27 05:13:25;;;;;;;;;;;-3.00;99.90;;;;;;5054267;28;20028;-77
2023/01/27 05:15:50;;;;;;;;;;;-3.10;99.90;;;;;;5054183;28;19956;-76
2023/01/27 05:18:18;;;;;;;;;;;-3.10;99.90;;;;;;5052477;28;20320;-76
2023/01/27 05:20:43;;;;;;;;;;;-3.10;99.90;;;;;;5054147;28;19913;-76
2023/01/27 05:25:53;;;;;;;;;;;-3.20;99.90;;;;;;5054226;28;19920;-76
2023/01/27 05:28:18;;;;;;;;;;;-3.10;99.90;;;;;;5053920;28;19916;-77
2023/01/27 05:30:44;;;;;;;;;;;-3.10;99.90;;;;;;5054063;28;20265;-77
2023/01/27 05:33:09;;;;;;;;;;;-3.10;99.90;;;;;;5053630;28;19935;-76
2023/01/27 05:35:35;;;;;;;;;;;-3.10;99.90;;;;;;5052557;28;19909;-76
2023/01/27 05:38:01;;;;;;;;;;;-3.10;99.90;;;;;;5053831;28;19952;-77
2023/01/27 05:40:26;;;;;;;;;;;-3.20;99.90;;;;;;5052312;28;19939;-76
2023/01/27 05:42:52;;;;;;;;;;;-3.20;99.90;;;;;;5052696;28;19963;-77
2023/01/27 05:45:18;;;;;;;;;;;-3.20;99.90;;;;;;5053785;28;19917;-77
2023/01/27 05:47:47;;;;;;;;;;;-3.20;99.90;;;;;;5054483;28;19913;-77
2023/01/27 05:50:13;;;;;;;;;;;-3.20;99.90;;;;;;5053764;28;19992;-77
2023/01/27 05:52:38;;;;;;;;;;;-3.10;99.90;;;;;;5052328;28;19956;-77
2023/01/27 05:55:04;;;;;;;;;;;-3.10;99.90;;;;;;5053632;28;19912;-77
2023/01/27 05:57:29;;;;;;;;;;;-3.10;99.90;;;;;;5053473;28;19927;-76
2023/01/27 05:59:55;;;;;;;;;;;-3.10;99.90;;;;;;5053406;28;20289;-77
2023/01/27 06:02:20;;;;;;;;;;;-3.10;99.90;;;;;;5053198;28;20323;-76
2023/01/27 06:04:46;;;;;;;;;;;-3.20;99.90;;;;;;5053797;28;19959;-77
2023/01/27 06:07:11;;;;;;;;;;;-3.20;99.90;;;;;;5053690;28;19920;-77
2023/01/27 06:09:37;;;;;;;;;;;-3.10;99.90;;;;;;5053247;28;19919;-76
2023/01/27 06:12:03;;;;;;;;;;;-3.20;99.90;;;;;;5052221;28;19967;-77
2023/01/27 06:14:28;;;;;;;;;;;-3.20;99.90;;;;;;5053624;28;19999;-77
2023/01/27 06:16:54;;;;;;;;;;;-3.20;99.90;;;;;;5053403;28;20003;-76
2023/01/27 06:19:19;;;;;;;;;;;-3.30;99.90;;;;;;5053426;28;20023;-77
2023/01/27 06:21:45;;;;;;;;;;;-3.30;99.90;;;;;;5052263;28;19913;-77
2023/01/27 06:24:11;;;;;;;;;;;-3.30;99.90;;;;;;5053486;28;19917;-76
2023/01/27 06:26:36;;;;;;;;;;;-3.30;99.90;;;;;;5053403;28;19912;-76
2023/01/27 06:29:02;;;;;;;;;;;-3.30;99.90;;;;;;5053275;28;19971;-76
2023/01/27 06:31:27;;;;;;;;;;;-3.30;99.90;;;;;;5052067;28;19913;-77
2023/01/27 06:33:53;;;;;;;;;;;-3.20;99.90;;;;;;5052143;28;20336;-76
2023/01/27 06:36:20;;;;;;;;;;;-3.20;99.90;;;;;;5055460;28;19963;-75
2023/01/27 06:38:46;;;;;;;;;;;-3.20;99.90;;;;;;5057069;28;19909;-76
2023/01/27 06:41:11;;;;;;;;;;;-3.10;99.90;;;;;;5057231;28;19923;-76
2023/01/27 06:43:37;;;;;;;;;;;-3.20;99.90;;;;;;5057765;28;19940;-75
2023/01/27 06:46:03;;;;;;;;;;;-3.20;99.90;;;;;;5056029;28;19960;-75
2023/01/27 06:48:28;;;;;;;;;;;-3.20;99.90;;;;;;5055768;28;20396;-76
2023/01/27 06:50:55;;;;;;;;;;;-3.30;99.90;;;;;;5055755;28;19978;-76
2023/01/27 06:53:20;;;;;;;;;;;-3.30;99.90;;;;;;5057047;28;19909;-76
2023/01/27 06:55:46;;;;;;;;;;;-3.30;99.90;;;;;;5056629;28;20335;-76
2023/01/27 06:58:13;;;;;;;;;;;-3.40;99.90;;;;;;5056816;28;19913;-76
2023/01/27 07:00:39;;;;;;;;;;;-3.40;99.90;;;;;;5056409;28;20266;-76
2023/01/27 07:03:05;;;;;;;;;;;-3.30;99.90;;;;;;5056782;28;19915;-76
2023/01/27 07:05:31;;;;;;;;;;;-3.30;99.90;;;;;;5056790;28;19982;-75
2023/01/27 07:07:57;;;;;;;;;;;-3.40;99.90;;;;;;5055409;28;19958;-75
2023/01/27 07:10:23;;;;;;;;;;;-3.30;99.90;;;;;;5056915;28;20000;-75
2023/01/27 07:12:48;;;;;;;;;;;-3.40;99.90;;;;;;5056702;28;19909;-75
2023/01/27 07:15:14;;;;;;;;;;;-3.40;99.90;;;;;;5055984;28;20478;-75
2023/01/27 07:17:39;;;;;;;;;;;-3.40;99.90;;;;;;5055993;28;19917;-75
2023/01/27 07:20:06;;;;;;;;;;;-3.30;99.90;;;;;;5055844;28;19971;-75
2023/01/27 07:22:32;;;;;;;;;;;-3.30;99.90;;;;;;5055108;28;20273;-75
2023/01/27 07:24:58;;;;;;;;;;;-3.30;99.90;;;;;;5054479;28;20131;-75
2023/01/27 07:27:24;;;;;;;;;;;-3.30;99.90;;;;;;5055816;28;19909;-75
2023/01/27 07:29:50;;;;;;;;;;;-3.30;99.90;;;;;;5056363;28;19917;-75
2023/01/27 07:32:15;;;;;;;;;;;-3.20;99.90;;;;;;5055873;28;19912;-75
2023/01/27 07:34:41;;;;;;;;;;;-3.30;99.90;;;;;;5056519;28;19943;-74
2023/01/27 07:37:06;;;;;;;;;;;-3.20;99.90;;;;;;5056127;28;19919;-75
2023/01/27 07:39:32;;;;;;;;;;;-3.20;99.90;;;;;;5055467;28;19971;-75
2023/01/27 07:42:00;;;;;;;;;;;-3.20;99.90;;;;;;5055832;28;19913;-75
2023/01/27 07:44:26;;;;;;;;;;;-3.20;99.90;;;;;;5055790;28;20349;-75
2023/01/27 07:46:52;;;;;;;;;;;-3.20;99.90;;;;;;5055194;28;20392;-75
2023/01/27 07:49:17;;;;;;;;;;;-3.20;99.90;;;;;;5055004;28;19913;-75
2023/01/27 07:51:43;;;;;;;;;;;-3.30;99.90;;;;;;5055575;28;20377;-75
2023/01/27 07:54:08;;;;;;;;;;;-3.20;99.90;;;;;;5055234;28;19967;-75
2023/01/27 07:56:35;;;;;;;;;;;-3.20;99.90;;;;;;5055380;28;19917;-74
2023/01/27 07:59:01;;;;;;;;;;;-3.20;99.90;;;;;;5053507;28;19921;-75
2023/01/27 08:01:26;;;;;;;;;;;-3.20;99.90;;;;;;5054110;28;19920;-74
2023/01/27 08:03:52;;;;;;;;;;;-3.10;99.90;;;;;;5054124;28;19912;-75
2023/01/27 08:06:17;;;;;;;;;;;-3.10;99.90;;;;;;5055814;28;19912;-74
2023/01/27 08:08:43;;;;;;;;;;;-3.10;99.90;;;;;;5055131;28;19909;-75
2023/01/27 08:11:10;;;;;;;;;;;-3.10;99.90;;;;;;5053736;28;20338;-75
2023/01/27 08:13:36;;;;;;;;;;;-3.00;99.90;;;;;;5055168;28;19913;-75
2023/01/27 08:16:04;;;;;;;;;;;-3.00;99.90;;;;;;5054772;28;19917;-75
2023/01/27 08:18:30;;;;;;;;;;;-3.00;99.90;;;;;;5054646;28;19937;-75
2023/01/27 08:20:58;;;;;;;;;;;-3.00;99.90;;;;;;5055075;28;20364;-75
2023/01/27 08:23:24;;;;;;;;;;;-2.90;99.90;;;;;;5054957;28;19958;-75
2023/01/27 08:25:50;;;;;;;;;;;-2.80;99.90;;;;;;5054726;28;19920;-74
2023/01/27 08:28:16;;;;;;;;;;;-2.80;99.90;;;;;;5055148;28;20335;-75
2023/01/27 08:30:41;;;;;;;;;;;-2.80;99.90;;;;;;5054578;28;19913;-74
2023/01/27 08:33:07;;;;;;;;;;;-2.80;99.90;;;;;;5053901;28;19956;-74
2023/01/27 08:35:33;;;;;;;;;;;-2.80;99.90;;;;;;5055247;28;19913;-75
2023/01/27 08:37:59;;;;;;;;;;;-2.70;99.90;;;;;;5055039;28;19913;-75
2023/01/27 08:40:24;;;;;;;;;;;-2.70;99.90;;;;;;5054673;28;20335;-74
2023/01/27 08:42:50;;;;;;;;;;;-2.70;99.90;;;;;;5054899;28;19978;-75
2023/01/27 08:45:15;;;;;;;;;;;-2.70;99.90;;;;;;5054932;28;19913;-75
2023/01/27 08:47:41;;;;;;;;;;;-2.70;99.90;;;;;;5054839;28;19963;-74
2023/01/27 08:50:07;;;;;;;;;;;-2.70;99.90;;;;;;5054729;28;19909;-74
2023/01/27 08:52:33;;;;;;;;;;;-2.70;99.90;;;;;;5054741;28;19956;-74
2023/01/27 08:54:58;;;;;;;;;;;-2.60;99.90;;;;;;5054447;28;19920;-75
2023/01/27 08:57:24;;;;;;;;;;;-2.60;99.90;;;;;;5054908;28;19916;-74
2023/01/27 08:59:49;;;;;;;;;;;-2.50;99.90;;;;;;5053177;28;19913;-75
2023/01/27 09:02:15;;;;;;;;;;;-2.40;99.90;;;;;;5054281;28;19913;-75
2023/01/27 09:04:43;;;;;;;;;;;-2.40;99.90;;;;;;5054626;28;19921;-75
2023/01/27 09:07:09;;;;;;;;;;;-2.30;99.90;;;;;;5055250;28;19913;-75
2023/01/27 09:09:34;;;;;;;;;;;-2.20;99.90;;;;;;5053067;28;19923;-75
2023/01/27 09:12:00;;;;;;;;;;;-2.20;99.90;;;;;;5053325;28;19920;-75
2023/01/27 09:14:25;;;;;;;;;;;-2.10;99.90;;;;;;5054815;28;19917;-75
2023/01/27 09:16:51;;;;;;;;;;;-2.10;99.90;;;;;;5054447;28;19924;-75
2023/01/27 09:19:16;;;;;;;;;;;-2.00;99.90;;;;;;5054196;28;19912;-75
2023/01/27 09:21:42;;;;;;;;;;;-1.90;99.90;;;;;;5054462;28;19952;-75
2023/01/27 09:24:07;;;;;;;;;;;-1.80;99.90;;;;;;5054256;28;19919;-75
2023/01/27 09:26:33;;;;;;;;;;;-1.70;99.90;;;;;;5053888;28;19939;-75
2023/01/27 09:28:58;;;;;;;;;;;-1.70;99.90;;;;;;5053910;28;19920;-75
2023/01/27 09:31:24;;;;;;;;;;;-1.70;99.90;;;;;;5054373;28;19913;-75
2023/01/27 09:33:49;;;;;;;;;;;-1.60;99.90;;;;;;5054556;28;19920;-75
2023/01/27 09:36:19;;;;;;;;;;;-1.50;99.90;;;;;;5053931;28;19917;-75
2023/01/27 09:38:47;;;;;;;;;;;-1.50;99.90;;;;;;5053931;28;19909;-75
2023/01/27 09:41:21;;;;;;;;;;;-1.50;99.90;;;;;;5053622;28;19935;-75
2023/01/27 09:43:53;;;;;;;;;;;-1.50;99.90;;;;;;5053850;28;19958;-75
2023/01/27 09:46:24;;;;;;;;;;;-1.40;99.90;;;;;;5053697;28;19909;-75
2023/01/27 09:48:50;;;;;;;;;;;-1.40;99.90;;;;;;5054144;28;19936;-75
2023/01/27 09:51:15;;;;;;;;;;;-1.30;99.90;;;;;;5053776;28;19909;-75
2023/01/27 09:53:49;;;;;;;;;;;-1.30;99.90;;;;;;5053762;28;19913;-74
2023/01/27 09:56:21;;;;;;;;;;;-1.20;99.90;;;;;;5053465;28;19913;-75
2023/01/27 09:58:49;;;;;;;;;;;-1.10;99.90;;;;;;5053942;28;19909;-75
2023/01/27 10:01:30;;;;;;;;;;;-1.00;99.90;;;;;;5053691;28;19909;-75
2023/01/27 10:04:15;;;;;;;;;;;-1.00;99.90;;;;;;5053257;28;20004;-75
2023/01/27 10:06:40;;;;;;;;;;;-0.90;99.90;;;;;;5053960;28;20280;-75
2023/01/27 10:09:24;;;;;;;;;;;-0.80;99.90;;;;;;5053654;28;19909;-75
2023/01/27 10:11:55;;;;;;;;;;;-0.70;99.90;;;;;;5054992;28;19916;-75
2023/01/27 10:14:27;;;;;;;;;;;-0.70;99.90;;;;;;5057661;28;19932;-75
2023/01/27 10:17:17;;;;;;;;;;;-0.60;99.90;;;;;;5057614;28;19912;-75
2023/01/27 10:20:01;;;;;;;;;;;-0.60;99.90;;;;;;5057661;28;19913;-75
2023/01/27 10:22:26;;;;;;;;;;;-0.60;99.90;;;;;;5057498;28;19916;-75
2023/01/27 10:25:04;;;;;;;;;;;-0.50;99.90;;;;;;5057214;28;20300;-75
2023/01/27 10:27:34;;;;;;;;;;;-0.50;99.90;;;;;;5057774;28;19916;-75
2023/01/27 10:30:13;;;;;;;;;;;-0.50;99.90;;;;;;5057152;28;20380;-75
2023/01/27 10:32:52;;;;;;;;;;;-0.40;99.90;;;;;;5057449;28;19913;-75
2023/01/27 10:35:29;;;;;;;;;;;-0.30;99.90;;;;;;5057272;28;20284;-75
2023/01/27 10:38:04;;;;;;;;;;;-0.30;99.90;;;;;;5057605;28;20448;-76
2023/01/27 10:40:29;;;;;;;;;;;-0.30;99.90;;;;;;5057237;28;19948;-75
2023/01/27 10:43:05;;;;;;;;;;;-0.20;99.90;;;;;;5057194;28;19948;-76
2023/01/27 10:45:39;;;;;;;;;;;-0.20;99.90;;;;;;5057199;28;19952;-76
2023/01/27 10:48:11;;;;;;;;;;;-0.10;99.90;;;;;;5057054;28;19909;-76
2023/01/27 10:50:39;;;;;;;;;;;0.00;99.90;;;;;;5057077;28;19904;-75
2023/01/27 10:53:10;;;;;;;;;;;0.00;99.90;;;;;;5057034;28;19909;-76
2023/01/27 10:55:59;;;;;;;;;;;0.10;99.90;;;;;;5058535;28;20373;-80
2023/01/27 10:58:24;;;;;;;;;;;0.10;99.90;;;;;;5046147;28;19948;-75
2023/01/27 11:00:52;;;;;;;;;;;0.20;99.90;;;;;;5057929;28;19909;-80
2023/01/27 11:03:24;;;;;;;;;;;0.20;99.90;;;;;;5059465;28;19951;-79
2023/01/27 11:05:50;;;;;;;;;;;0.20;99.90;;;;;;5058732;28;20348;-79
2023/01/27 11:08:19;;;;;;;;;;;0.20;99.90;;;;;;5057212;28;20004;-79
2023/01/27 11:13:34;;;;;;;;;;;0.10;99.90;;;;;;5058705;28;20351;-79
2023/01/27 11:16:00;;;;;;;;;;;0.10;99.90;;;;;;5058435;28;19956;-78
2023/01/27 11:18:27;;;;;;;;;;;0.10;99.90;;;;;;5056402;28;19936;-75
2023/01/27 11:20:56;;;;;;;;;;;0.10;99.90;;;;;;5056800;28;19909;-75
2023/01/27 11:23:41;;;;;;;;;;;0.10;99.90;;;;;;5056079;28;19920;-76
2023/01/27 11:26:07;;;;;;;;;;;0.20;99.90;;;;;;5056156;28;20327;-75
2023/01/27 11:28:36;;;;;;;;;;;0.20;99.90;;;;;;5056064;28;20000;-75
2023/01/27 11:31:09;;;;;;;;;;;0.20;99.90;;;;;;5056286;28;19912;-76
2023/01/27 11:33:47;;;;;;;;;;;0.20;99.90;;;;;;5056367;28;19916;-75
2023/01/27 11:36:12;;;;;;;;;;;0.20;99.90;;;;;;5055683;28;19913;-75
2023/01/27 11:38:38;;;;;;;;;;;0.20;99.90;;;;;;5056271;28;19938;-76
2023/01/27 11:41:04;;;;;;;;;;;0.30;99.90;;;;;;5055839;28;19916;-76
2023/01/27 11:43:29;;;;;;;;;;;0.20;99.90;;;;;;5056703;28;19939;-76
2023/01/27 11:45:59;;;;;;;;;;;0.30;99.90;;;;;;5055584;28;19913;-76
2023/01/27 11:48:29;;;;;;;;;;;0.30;99.90;;;;;;5056164;28;19909;-76
2023/01/27 11:50:54;;;;;;;;;;;0.40;99.90;;;;;;5055994;28;20345;-76
2023/01/27 11:53:27;;;;;;;;;;;0.50;99.90;;;;;;5056487;28;19956;-76
2023/01/27 11:56:01;;;;;;;;;;;0.50;99.90;;;;;;5055759;28;19917;-76
2023/01/27 11:58:30;;;;;;;;;;;0.50;99.90;;;;;;5056092;28;19913;-76
2023/01/27 12:01:01;;;;;;;;;;;0.50;99.90;;;;;;5056194;28;20357;-76
2023/01/27 12:03:45;;;;;;;;;;;0.60;99.90;;;;;;5055755;28;19909;-77
2023/01/27 12:06:13;;;;;;;;;;;0.60;99.90;;;;;;5055733;28;19909;-76
2023/01/27 12:08:48;;;;;;;;;;;0.70;99.90;;;;;;5055809;28;19913;-76
2023/01/27 12:11:30;;;;;;;;;;;0.60;99.90;;;;;;5053436;28;19956;-76
2023/01/27 12:13:57;;;;;;;;;;;0.70;99.90;;;;;;5055832;28;20283;-76
2023/01/27 12:16:31;;;;;;;;;;;0.80;99.90;;;;;;5055669;28;20289;-76
2023/01/27 12:18:59;;;;;;;;;;;0.90;99.90;;;;;;5055036;28;20361;-76
2023/01/27 12:21:54;;;;;;;;;;;0.90;99.90;;;;;;5054507;28;19955;-76
2023/01/27 12:24:21;;;;;;;;;;;0.90;99.90;;;;;;5037986;28;19909;-76
2023/01/27 12:26:50;;;;;;;;;;;1.00;99.90;;;;;;5054648;28;20331;-76
2023/01/27 12:29:18;;;;;;;;;;;1.00;99.90;;;;;;5055070;28;19952;-76
2023/01/27 12:31:45;;;;;;;;;;;1.00;99.90;;;;;;5055458;28;19923;-76
2023/01/27 12:34:21;;;;;;;;;;;0.90;99.90;;;;;;5053838;28;19912;-76
2023/01/27 12:36:47;;;;;;;;;;;0.90;99.90;;;;;;5054886;28;19952;-76
2023/01/27 12:39:40;;;;;;;;;;;0.80;99.90;;;;;;5055670;28;19920;-76
2023/01/27 12:42:25;;;;;;;;;;;0.70;99.90;;;;;;5050906;28;20387;-76
2023/01/27 12:44:51;;;;;;;;;;;0.70;99.90;;;;;;5054623;28;19916;-76
2023/01/27 12:47:25;;;;;;;;;;;0.70;99.90;;;;;;5055195;28;20055;-76
2023/01/27 12:49:50;;;;;;;;;;;0.70;99.90;;;;;;5054875;28;19908;-76
2023/01/27 12:52:17;;;;;;;;;;;0.70;99.90;;;;;;5054751;28;20313;-76
2023/01/27 12:54:43;;;;;;;;;;;0.70;99.90;;;;;;5054766;28;19936;-76
2023/01/27 12:57:14;;;;;;;;;;;0.70;99.90;;;;;;5054317;28;19916;-76
2023/01/27 12:59:54;;;;;;;;;;;0.70;99.90;;;;;;5054859;28;19909;-76
2023/01/27 13:02:20;;;;;;;;;;;0.70;99.90;;;;;;5053217;28;19909;-76
2023/01/27 13:05:06;;;;;;;;;;;0.70;99.90;;;;;;5054489;28;19955;-76
2023/01/27 13:07:38;;;;;;;;;;;0.70;99.90;;;;;;5054832;28;19908;-76
2023/01/27 13:10:05;;;;;;;;;;;0.80;99.90;;;;;;5054395;28;19916;-76
2023/01/27 13:12:46;;;;;;;;;;;0.80;99.90;;;;;;5054374;28;20019;-76
2023/01/27 13:15:16;;;;;;;;;;;0.70;99.90;;;;;;5054261;28;19909;-76
2023/01/27 13:17:47;;;;;;;;;;;0.70;99.90;;;;;;5054470;28;20003;-76
2023/01/27 13:20:24;;;;;;;;;;;0.80;99.90;;;;;;5054508;28;19909;-76
2023/01/27 13:22:53;;;;;;;;;;;0.80;99.90;;;;;;5054158;28;19916;-76
2023/01/27 13:25:23;;;;;;;;;;;0.80;99.90;;;;;;5054198;28;20041;-76
2023/01/27 13:27:52;;;;;;;;;;;0.70;99.90;;;;;;5054253;28;19963;-76
2023/01/27 13:30:17;;;;;;;;;;;0.70;99.90;;;;;;5054006;28;19919;-76
2023/01/27 13:32:46;;;;;;;;;;;0.70;99.90;;;;;;5053936;28;19991;-76
2023/01/27 13:35:29;;;;;;;;;;;0.60;99.90;;;;;;5053930;28;19912;-76
2023/01/27 13:38:15;;;;;;;;;;;0.60;99.90;;;;;;5054426;28;20007;-76
2023/01/27 13:40:43;;;;;;;;;;;0.50;99.90;;;;;;5053302;28;19948;-76
2023/01/27 13:43:08;;;;;;;;;;;0.50;99.90;;;;;;5054115;28;20357;-77
2023/01/27 13:45:37;;;;;;;;;;;0.50;99.90;;;;;;5053791;28;19915;-77
2023/01/27 13:48:21;;;;;;;;;;;0.50;99.90;;;;;;5054148;28;19909;-77
2023/01/27 13:50:55;;;;;;;;;;;0.50;99.90;;;;;;5054234;28;19905;-77
2023/01/27 13:53:21;;;;;;;;;;;0.40;99.90;;;;;;5053831;28;19963;-77
2023/01/27 13:55:46;;;;;;;;;;;0.40;99.90;;;;;;5053719;28;19913;-76
2023/01/27 13:58:32;;;;;;;;;;;0.30;99.90;;;;;;5054046;28;19909;-77
2023/01/27 14:01:01;;;;;;;;;;;0.30;99.90;;;;;;5052574;28;19913;-76
2023/01/27 14:03:58;;;;;;;;;;;0.20;99.90;;;;;;5053757;28;20051;-76
2023/01/27 14:06:33;;;;;;;;;;;0.10;99.90;;;;;;5053528;28;19908;-76
2023/01/27 14:08:58;;;;;;;;;;;0.00;99.90;;;;;;5053671;28;20042;-76
2023/01/27 14:11:34;;;;;;;;;;;0.00;99.90;;;;;;5053290;28;19952;-76
2023/01/27 14:14:02;;;;;;;;;;;-0.10;99.90;;;;;;5053607;28;19909;-76
2023/01/27 14:16:28;;;;;;;;;;;-0.20;99.90;;;;;;5051881;28;20373;-76
2023/01/27 14:19:04;;;;;;;;;;;-0.20;99.90;;;;;;5053421;28;19913;-76
2023/01/27 14:21:33;;;;;;;;;;;-0.20;99.90;;;;;;5053462;28;20110;-76
2023/01/27 14:24:08;;;;;;;;;;;-0.30;99.90;;;;;;5053580;28;19909;-76
2023/01/27 14:26:53;;;;;;;;;;;-0.30;99.90;;;;;;5053480;28;19982;-76
2023/01/27 14:29:32;;;;;;;;;;;-0.30;99.90;;;;;;5053538;28;19925;-76
2023/01/27 14:32:00;;;;;;;;;;;-0.30;99.90;;;;;;5052998;28;19909;-76
2023/01/27 14:34:35;;;;;;;;;;;-0.30;99.90;;;;;;5053405;28;20055;-76
2023/01/27 14:37:14;;;;;;;;;;;-0.30;99.90;;;;;;5053171;28;19913;-76
2023/01/27 14:39:43;;;;;;;;;;;-0.40;99.90;;;;;;5053538;28;19962;-75
2023/01/27 14:42:08;;;;;;;;;;;-0.40;99.90;;;;;;5053066;28;19916;-76
2023/01/27 14:44:36;;;;;;;;;;;-0.50;99.90;;;;;;5053214;28;19908;-76
2023/01/27 14:47:02;;;;;;;;;;;-0.50;99.90;;;;;;5053215;28;20422;-76
2023/01/27 14:49:27;;;;;;;;;;;-0.40;99.90;;;;;;5053133;28;19964;-76
2023/01/27 14:52:00;;;;;;;;;;;-0.40;99.90;;;;;;5051921;28;19948;-77
2023/01/27 14:54:44;;;;;;;;;;;-0.40;99.90;;;;;;5053331;28;19909;-76
2023/01/27 14:57:33;;;;;;;;;;;-0.40;99.90;;;;;;5054251;28;19946;-76
2023/01/27 15:00:24;;;;;;;;;;;-0.40;99.90;;;;;;5019368;28;19909;-76
2023/01/27 15:02:50;;;;;;;;;;;-0.40;99.90;;;;;;5025806;28;19932;-76
2023/01/27 15:05:36;;;;;;;;;;;-0.30;99.90;;;;;;5056816;28;20365;-76
2023/01/27 15:08:17;;;;;;;;;;;-0.30;99.90;;;;;;5055971;28;19913;-76